Didsbury, United Kingdom
Current Conditions -  °F | °C
As of 2:50 AM on Wednesday 26 Nov 2014 (Local Time) from EGCC Reporting Station
Light Rain Light Rain  
Wind Chill: 37°   Ceiling: 4400
Heat Index: 43°   Visibility: 4mi
Dew Point: 43°   Wind: 9mph
Humidity: 100%   Direction: 40°NE
Pressure: 30"   Gusts: NA
Location:  53.42°N, 2.23°W
Report Text: EGCC 260250Z 04008KT 7000 -RA FEW033TCU BKN044 06/06 Q1016 TEMPO SHRA
Loading
Personal Weather Stations






























Interactive Weather Map New forecast layout! Learn more

10-Day Weather Forecast

Advertisements
Track Severe Weather on mobile